Time;durP1;ratioP1;P1;durP2;ratioP2;P2;SDS_P1;SDS_P2;PMS_P1;PMS_P2;Temp;Humidity;BMP_temperature;BMP_pressure;BME280_temperature;BME280_humidity;BME280_pressure;Samples;Min_cycle;Max_cycle;Signal;HPM_P1;HPM_P2
2023/05/04 00:02:10;;;;;;;0.20;0.20;;;1.10;99.90;;;;;;5052330;28;20037;-68
2023/05/04 00:04:36;;;;;;;0.30;0.30;;;1.10;99.90;;;;;;5054305;28;20075;-67
2023/05/04 00:07:01;;;;;;;0.25;0.25;;;1.10;99.90;;;;;;5054120;28;20025;-68
2023/05/04 00:09:27;;;;;;;0.20;0.20;;;1.10;99.90;;;;;;5054001;28;20036;-67
2023/05/04 00:11:52;;;;;;;0.30;0.30;;;1.10;99.90;;;;;;5054062;28;20029;-68
2023/05/04 00:14:18;;;;;;;0.20;0.20;;;1.00;99.90;;;;;;5054057;28;20394;-68
2023/05/04 00:16:43;;;;;;;0.30;0.30;;;1.00;99.90;;;;;;5053713;28;20028;-68
2023/05/04 00:19:09;;;;;;;0.30;0.30;;;1.00;99.90;;;;;;5053661;28;20052;-68
2023/05/04 00:21:35;;;;;;;0.30;0.30;;;1.00;99.90;;;;;;5052614;28;20108;-68
2023/05/04 00:24:01;;;;;;;0.30;0.30;;;1.00;99.90;;;;;;5053767;28;20025;-68
2023/05/04 00:26:26;;;;;;;0.28;0.28;;;1.00;99.90;;;;;;5053903;28;20100;-68
2023/05/04 00:28:52;;;;;;;0.20;0.20;;;1.00;99.90;;;;;;5053348;28;20043;-68
2023/05/04 00:31:17;;;;;;;0.25;0.25;;;1.00;99.90;;;;;;5053693;28;20029;-68
2023/05/04 00:33:43;;;;;;;0.20;0.20;;;1.00;99.90;;;;;;5053607;28;20478;-68
2023/05/04 00:36:09;;;;;;;0.22;0.22;;;0.90;99.90;;;;;;5053479;28;20083;-68
2023/05/04 00:38:55;;;;;;;0.30;0.30;;;0.90;99.90;;;;;;5053492;28;20021;-67
2023/05/04 00:41:21;;;;;;;0.20;0.20;;;0.90;99.90;;;;;;5053226;28;20075;-68
2023/05/04 00:43:47;;;;;;;0.30;0.30;;;0.80;99.90;;;;;;5052361;28;20410;-68
2023/05/04 00:46:13;;;;;;;0.20;0.20;;;0.80;99.90;;;;;;5053869;28;20029;-67
2023/05/04 00:48:40;;;;;;;0.30;0.30;;;0.80;99.90;;;;;;5053496;28;20474;-67
2023/05/04 00:51:06;;;;;;;0.20;0.20;;;0.80;99.90;;;;;;5053251;28;20478;-68
2023/05/04 00:53:33;;;;;;;0.20;0.20;;;0.80;99.90;;;;;;5052817;28;20096;-68
2023/05/04 00:56:00;;;;;;;0.30;0.30;;;0.80;99.90;;;;;;5053378;28;20072;-67
2023/05/04 00:58:26;;;;;;;0.40;0.40;;;0.80;99.90;;;;;;5053312;28;20017;-67
2023/05/04 01:00:51;;;;;;;0.30;0.30;;;0.80;99.90;;;;;;5053098;28;20029;-68
2023/05/04 01:03:17;;;;;;;0.20;0.20;;;0.70;99.90;;;;;;5053024;28;20033;-68
2023/05/04 01:05:59;;;;;;;0.20;0.20;;;0.60;99.90;;;;;;5051417;28;20494;-68
2023/05/04 01:08:37;;;;;;;0.30;0.30;;;0.60;99.90;;;;;;5053563;28;20025;-67
2023/05/04 01:11:09;;;;;;;0.30;0.30;;;0.50;99.90;;;;;;5053296;28;20040;-67
2023/05/04 01:13:36;;;;;;;0.30;0.30;;;0.50;99.90;;;;;;5053802;28;20025;-67
2023/05/04 01:16:02;;;;;;;0.22;0.22;;;0.50;99.90;;;;;;5053142;28;20364;-67
2023/05/04 01:18:28;;;;;;;0.30;0.30;;;0.40;99.90;;;;;;5053162;28;20047;-67
2023/05/04 01:20:54;;;;;;;0.20;0.20;;;0.40;99.90;;;;;;5052723;28;20437;-68
2023/05/04 01:23:19;;;;;;;0.20;0.20;;;0.40;99.90;;;;;;5053094;28;20017;-67
2023/05/04 01:26:04;;;;;;;0.30;0.30;;;0.40;99.90;;;;;;5053004;28;20086;-67
2023/05/04 01:28:40;;;;;;;0.30;0.30;;;0.40;99.90;;;;;;5052807;28;20075;-68
2023/05/04 01:31:12;;;;;;;0.20;0.20;;;0.40;99.90;;;;;;5053066;28;20025;-67
2023/05/04 01:33:38;;;;;;;0.20;0.20;;;0.30;99.90;;;;;;5053008;28;20027;-67
2023/05/04 01:36:05;;;;;;;0.35;0.35;;;0.30;99.90;;;;;;5052911;28;20540;-67
2023/05/04 01:38:30;;;;;;;0.30;0.30;;;0.30;99.90;;;;;;5052957;28;20021;-67
2023/05/04 01:40:56;;;;;;;0.30;0.30;;;0.30;99.90;;;;;;5052377;28;20025;-68
2023/05/04 01:43:22;;;;;;;0.20;0.20;;;0.20;99.90;;;;;;5052856;28;20037;-67
2023/05/04 01:45:47;;;;;;;0.30;0.30;;;0.30;99.90;;;;;;5052234;28;20490;-68
2023/05/04 01:48:13;;;;;;;0.28;0.28;;;0.20;99.90;;;;;;5052821;28;20037;-67
2023/05/04 01:50:39;;;;;;;0.30;0.30;;;0.30;99.90;;;;;;5052407;28;20079;-68
2023/05/04 01:53:04;;;;;;;0.13;0.13;;;0.30;99.90;;;;;;5052700;28;20067;-67
2023/05/04 01:55:30;;;;;;;0.30;0.30;;;0.30;99.90;;;;;;5054676;28;20013;-67
2023/05/04 01:57:55;;;;;;;0.22;0.22;;;0.20;99.90;;;;;;5055514;28;20394;-67
2023/05/04 02:00:21;;;;;;;0.30;0.30;;;0.20;99.90;;;;;;5056263;28;20028;-68
2023/05/04 02:02:47;;;;;;;0.30;0.30;;;0.20;99.90;;;;;;5097082;23;20041;-72
2023/05/04 02:05:12;;;;;;;0.30;0.30;;;0.30;99.90;;;;;;5036700;28;20017;-72
2023/05/04 02:07:38;;;;;;;0.30;0.30;;;0.20;99.90;;;;;;5018877;28;20024;-72
2023/05/04 02:10:04;;;;;;;0.30;0.30;;;0.20;99.90;;;;;;5036548;28;20021;-72
2023/05/04 02:12:29;;;;;;;0.30;0.30;;;0.20;99.90;;;;;;5045569;28;20063;-72
2023/05/04 02:14:55;;;;;;;0.30;0.30;;;0.20;99.90;;;;;;5056453;28;20021;-72
2023/05/04 02:17:20;;;;;;;0.28;0.28;;;0.20;99.90;;;;;;5056405;28;20440;-72
2023/05/04 02:19:46;;;;;;;0.20;0.20;;;0.20;99.90;;;;;;5056305;28;20055;-72
2023/05/04 02:22:11;;;;;;;0.30;0.30;;;0.20;99.90;;;;;;5055863;28;20025;-72
2023/05/04 02:24:39;;;;;;;0.22;0.22;;;0.20;99.90;;;;;;5056224;28;20457;-72
2023/05/04 02:27:05;;;;;;;0.32;0.32;;;0.30;99.90;;;;;;5056264;28;20074;-72
2023/05/04 02:29:30;;;;;;;0.20;0.20;;;0.30;99.90;;;;;;5056060;28;20436;-72
2023/05/04 02:31:56;;;;;;;0.30;0.30;;;0.40;99.90;;;;;;5056024;28;20036;-72
2023/05/04 02:34:21;;;;;;;0.30;0.30;;;0.40;99.90;;;;;;5038194;28;20498;-72
2023/05/04 02:36:47;;;;;;;0.30;0.30;;;0.40;99.90;;;;;;5056043;28;20474;-72
2023/05/04 02:39:12;;;;;;;0.20;0.20;;;0.40;99.90;;;;;;5056245;28;20083;-72
2023/05/04 02:41:38;;;;;;;0.30;0.30;;;0.50;99.90;;;;;;5035932;28;20047;-72
2023/05/04 02:44:04;;;;;;;0.20;0.20;;;0.50;99.90;;;;;;5051701;28;20020;-72
2023/05/04 02:46:31;;;;;;;0.30;0.30;;;0.60;99.90;;;;;;5036242;28;20426;-72
2023/05/04 02:48:56;;;;;;;0.20;0.20;;;0.60;99.90;;;;;;5035544;28;20517;-72
2023/05/04 02:51:22;;;;;;;0.40;0.40;;;0.60;99.90;;;;;;5035652;28;20033;-72
2023/05/04 02:53:48;;;;;;;0.20;0.20;;;0.70;99.90;;;;;;5035541;28;20531;-72
2023/05/04 02:56:13;;;;;;;0.30;0.30;;;0.70;99.90;;;;;;5035726;28;20537;-72
2023/05/04 02:58:39;;;;;;;0.22;0.22;;;0.80;99.90;;;;;;5043901;28;20016;-72
2023/05/04 03:01:04;;;;;;;0.20;0.20;;;0.80;99.90;;;;;;5055226;28;20548;-72
2023/05/04 03:03:31;;;;;;;0.28;0.28;;;0.90;99.90;;;;;;5036534;28;20082;-72
2023/05/04 03:05:56;;;;;;;0.20;0.20;;;0.90;99.90;;;;;;5054955;28;20104;-72
2023/05/04 03:08:22;;;;;;;0.30;0.30;;;1.00;99.90;;;;;;5054427;28;20029;-72
2023/05/04 03:10:47;;;;;;;0.20;0.20;;;1.00;99.90;;;;;;5055411;28;20029;-72
2023/05/04 03:13:13;;;;;;;0.40;0.40;;;1.10;99.90;;;;;;5055233;28;20360;-72
2023/05/04 03:15:39;;;;;;;0.20;0.20;;;1.10;99.90;;;;;;5055418;28;20036;-72
2023/05/04 03:18:05;;;;;;;0.28;0.28;;;1.10;99.90;;;;;;5036879;28;20057;-72
2023/05/04 03:20:30;;;;;;;0.22;0.22;;;1.20;99.90;;;;;;5055688;28;20434;-72
2023/05/04 03:22:56;;;;;;;0.30;0.30;;;1.10;99.90;;;;;;5055098;28;20059;-72
2023/05/04 03:25:21;;;;;;;0.20;0.20;;;1.20;99.90;;;;;;5055057;28;20482;-72
2023/05/04 03:27:47;;;;;;;0.20;0.20;;;1.20;99.90;;;;;;5054817;28;20040;-72
2023/05/04 03:30:13;;;;;;;0.30;0.30;;;1.20;99.90;;;;;;5054820;28;20036;-72
2023/05/04 03:32:39;;;;;;;0.30;0.30;;;1.30;99.90;;;;;;5054925;28;20032;-72
2023/05/04 03:35:05;;;;;;;0.30;0.30;;;1.30;99.90;;;;;;5055001;28;20363;-73
2023/05/04 03:37:30;;;;;;;0.20;0.20;;;1.40;99.90;;;;;;5054375;28;20020;-72
2023/05/04 03:39:56;;;;;;;0.30;0.30;;;1.40;99.90;;;;;;5055433;28;20029;-72
2023/05/04 03:42:22;;;;;;;0.28;0.28;;;1.40;99.90;;;;;;5054776;28;20029;-72
2023/05/04 03:44:47;;;;;;;0.20;0.20;;;1.40;99.90;;;;;;5054760;28;20031;-72
2023/05/04 03:47:13;;;;;;;0.20;0.20;;;1.50;99.90;;;;;;5054555;28;20029;-72
2023/05/04 03:49:39;;;;;;;0.20;0.20;;;1.40;99.90;;;;;;5054874;28;20064;-72
2023/05/04 03:52:04;;;;;;;0.30;0.30;;;1.50;99.90;;;;;;5054287;28;20044;-72
2023/05/04 03:54:30;;;;;;;0.22;0.22;;;1.50;99.90;;;;;;5054602;28;20021;-72
2023/05/04 03:56:55;;;;;;;0.20;0.20;;;1.50;99.90;;;;;;5036427;28;20020;-72
2023/05/04 03:59:21;;;;;;;0.20;0.20;;;1.50;99.90;;;;;;5053930;28;20028;-72
2023/05/04 04:01:46;;;;;;;0.20;0.20;;;1.50;99.90;;;;;;5054242;28;20029;-72
2023/05/04 04:04:12;;;;;;;0.20;0.20;;;1.50;99.90;;;;;;5036590;28;20032;-72
2023/05/04 04:06:37;;;;;;;0.20;0.20;;;1.40;99.90;;;;;;5054670;28;20021;-72
2023/05/04 04:09:03;;;;;;;0.13;0.13;;;1.40;99.90;;;;;;5054163;28;20143;-72
2023/05/04 04:11:29;;;;;;;0.30;0.30;;;1.40;99.90;;;;;;5053829;28;20020;-72
2023/05/04 04:13:54;;;;;;;0.30;0.30;;;1.40;99.90;;;;;;5053919;28;20024;-72
2023/05/04 04:16:20;;;;;;;0.30;0.30;;;1.30;99.90;;;;;;5035963;28;20102;-72
2023/05/04 04:18:46;;;;;;;0.20;0.20;;;1.30;99.90;;;;;;5052982;28;20052;-72
2023/05/04 04:21:11;;;;;;;0.20;0.20;;;1.40;99.90;;;;;;5044344;28;20033;-72
2023/05/04 04:23:37;;;;;;;0.20;0.20;;;1.40;99.90;;;;;;5033968;28;20068;-72
2023/05/04 04:26:05;;;;;;;0.20;0.20;;;1.40;99.90;;;;;;5034921;28;20029;-72
2023/05/04 04:28:31;;;;;;;0.30;0.30;;;1.40;99.90;;;;;;5033949;28;20072;-72
2023/05/04 04:30:58;;;;;;;0.28;0.28;;;1.50;99.90;;;;;;5016147;28;20052;-72
2023/05/04 04:33:24;;;;;;;0.25;0.25;;;1.50;99.90;;;;;;5033315;28;20021;-72
2023/05/04 04:35:49;;;;;;;0.30;0.30;;;1.60;99.90;;;;;;5016427;28;20479;-72
2023/05/04 04:38:15;;;;;;;0.20;0.20;;;1.60;99.90;;;;;;5033784;28;20029;-72
2023/05/04 04:40:40;;;;;;;0.20;0.20;;;1.70;99.90;;;;;;5034616;28;20032;-73
2023/05/04 04:43:06;;;;;;;0.20;0.20;;;1.70;99.90;;;;;;5035638;28;20025;-73
2023/05/04 04:45:32;;;;;;;0.22;0.22;;;1.80;99.90;;;;;;5051443;28;20494;-73
2023/05/04 04:47:58;;;;;;;0.30;0.30;;;1.80;99.90;;;;;;5053896;28;20421;-73
2023/05/04 04:50:23;;;;;;;0.20;0.20;;;1.90;99.90;;;;;;5036585;28;20026;-72
2023/05/04 04:52:49;;;;;;;0.20;0.20;;;2.00;99.90;;;;;;5032762;28;20445;-72
2023/05/04 04:55:16;;;;;;;0.30;0.30;;;2.10;99.90;;;;;;5049261;28;20024;-73
2023/05/04 04:57:41;;;;;;;0.22;0.22;;;2.10;99.90;;;;;;5035493;28;20021;-72
2023/05/04 05:00:10;;;;;;;0.20;0.20;;;2.10;99.90;;;;;;5053304;28;20029;-73
2023/05/04 05:02:36;;;;;;;0.20;0.20;;;2.10;99.90;;;;;;5026209;28;20107;-73
2023/05/04 05:05:02;;;;;;;0.28;0.28;;;2.20;99.90;;;;;;5032678;28;20028;-72
2023/05/04 05:07:27;;;;;;;0.20;0.20;;;2.30;99.90;;;;;;5034468;28;20025;-72
2023/05/04 05:09:53;;;;;;;0.30;0.30;;;2.30;99.90;;;;;;5034497;28;20065;-72
2023/05/04 05:12:18;;;;;;;0.10;0.10;;;2.30;99.90;;;;;;5040847;28;20065;-72
2023/05/04 05:14:46;;;;;;;0.20;0.20;;;2.40;99.90;;;;;;5053114;28;20100;-72
2023/05/04 05:17:11;;;;;;;0.20;0.20;;;2.40;99.90;;;;;;5052798;28;20025;-72
2023/05/04 05:19:37;;;;;;;0.20;0.20;;;2.50;99.90;;;;;;5052870;28;20560;-72
2023/05/04 05:22:03;;;;;;;0.20;0.20;;;2.60;99.90;;;;;;5037290;28;20026;-73
2023/05/04 05:24:29;;;;;;;0.20;0.20;;;2.70;99.90;;;;;;5032825;28;20032;-72
2023/05/04 05:26:54;;;;;;;0.20;0.20;;;2.80;99.90;;;;;;5032890;28;20025;-72
2023/05/04 05:29:20;;;;;;;0.20;0.20;;;3.00;99.90;;;;;;5049927;28;20029;-72
2023/05/04 05:31:45;;;;;;;0.25;0.25;;;3.10;99.90;;;;;;5034576;28;20017;-72
2023/05/04 05:34:11;;;;;;;0.20;0.20;;;3.30;99.90;;;;;;5053149;28;20025;-73
2023/05/04 05:36:37;;;;;;;0.30;0.30;;;3.50;99.90;;;;;;5028755;28;20021;-72
2023/05/04 05:39:03;;;;;;;0.25;0.25;;;3.70;99.90;;;;;;5032739;28;20029;-72
2023/05/04 05:41:28;;;;;;;0.28;0.28;;;3.90;99.90;;;;;;5040114;28;20036;-73
2023/05/04 05:43:54;;;;;;;0.20;0.20;;;4.10;99.90;;;;;;5052863;28;20060;-72
2023/05/04 05:46:21;;;;;;;0.20;0.20;;;4.20;99.90;;;;;;5049558;28;20028;-72
2023/05/04 05:48:47;;;;;;;0.20;0.20;;;4.50;99.90;;;;;;5032787;28;20030;-73
2023/05/04 05:51:12;;;;;;;0.20;0.20;;;4.60;99.90;;;;;;5032979;28;20437;-73
2023/05/04 05:53:38;;;;;;;0.10;0.10;;;4.70;99.90;;;;;;5032295;28;20113;-72
2023/05/04 05:56:03;;;;;;;0.15;0.15;;;5.00;99.90;;;;;;5032456;28;20028;-72
2023/05/04 05:58:29;;;;;;;0.25;0.25;;;5.20;99.90;;;;;;5032584;28;20093;-72
2023/05/04 06:00:54;;;;;;;0.20;0.20;;;5.40;99.90;;;;;;5032489;28;20475;-72
2023/05/04 06:03:20;;;;;;;0.20;0.20;;;5.60;99.90;;;;;;5032414;28;20099;-72
2023/05/04 06:05:45;;;;;;;0.20;0.20;;;5.90;99.90;;;;;;5045146;28;20429;-72
2023/05/04 06:08:11;;;;;;;0.15;0.15;;;6.10;99.90;;;;;;5051937;28;20025;-72
2023/05/04 06:10:36;;;;;;;0.30;0.30;;;6.30;99.90;;;;;;5052448;28;20124;-73
2023/05/04 06:13:02;;;;;;;0.20;0.20;;;6.50;99.90;;;;;;5052107;28;20049;-72
2023/05/04 06:15:27;;;;;;;0.20;0.20;;;6.90;99.90;;;;;;5052205;28;20040;-72
2023/05/04 06:17:53;;;;;;;0.20;0.20;;;7.10;99.90;;;;;;5049435;28;20105;-71
2023/05/04 06:20:18;;;;;;;0.20;0.20;;;7.40;99.90;;;;;;5052510;28;20074;-72
2023/05/04 06:22:44;;;;;;;0.30;0.30;;;7.40;99.90;;;;;;5052143;28;20025;-72
2023/05/04 06:25:10;;;;;;;0.20;0.20;;;7.80;99.90;;;;;;5032642;28;20113;-72
2023/05/04 06:27:35;;;;;;;0.30;0.30;;;8.10;99.90;;;;;;5014537;28;20022;-71
2023/05/04 06:30:01;;;;;;;0.30;0.30;;;8.20;99.90;;;;;;5033530;28;20030;-72
2023/05/04 06:32:27;;;;;;;0.10;0.10;;;8.50;99.90;;;;;;5032155;28;20029;-73
2023/05/04 06:34:54;;;;;;;0.20;0.20;;;8.60;99.90;;;;;;5034627;28;20033;-72
2023/05/04 06:37:20;;;;;;;0.20;0.20;;;8.90;99.90;;;;;;5031690;28;20064;-72
2023/05/04 06:39:45;;;;;;;0.20;0.20;;;9.10;99.90;;;;;;5034015;28;20021;-72
2023/05/04 06:42:11;;;;;;;0.20;0.20;;;9.20;99.90;;;;;;5045829;28;20039;-73
2023/05/04 06:44:37;;;;;;;0.28;0.28;;;9.30;99.90;;;;;;5055232;28;20112;-72
2023/05/04 06:47:02;;;;;;;0.20;0.20;;;9.40;99.90;;;;;;5040650;28;20052;-72
2023/05/04 06:49:31;;;;;;;0.20;0.20;;;9.60;99.90;;;;;;5035035;28;20032;-72
2023/05/04 06:51:57;;;;;;;0.20;0.20;;;9.80;99.90;;;;;;5042086;28;20428;-72
2023/05/04 06:54:23;;;;;;;0.20;0.20;;;10.00;99.90;;;;;;5055652;28;20028;-72
2023/05/04 06:56:48;;;;;;;0.20;0.20;;;10.20;99.90;;;;;;5054015;28;20025;-72
2023/05/04 06:59:15;;;;;;;0.20;0.20;;;10.40;99.90;;;;;;5035329;28;20034;-72
2023/05/04 07:01:41;;;;;;;0.20;0.20;;;10.70;99.90;;;;;;5035640;28;20052;-72
2023/05/04 07:04:06;;;;;;;0.17;0.17;;;10.90;99.90;;;;;;5036692;28;20061;-72
2023/05/04 07:06:32;;;;;;;0.20;0.20;;;11.20;99.90;;;;;;5017328;28;20013;-73
2023/05/04 07:08:58;;;;;;;0.20;0.20;;;11.30;99.90;;;;;;5035457;28;20026;-73
2023/05/04 07:11:23;;;;;;;0.20;0.20;;;11.50;99.90;;;;;;5035033;28;20029;-72
2023/05/04 07:13:49;;;;;;;0.20;0.20;;;11.60;99.90;;;;;;5048473;28;20063;-72
2023/05/04 07:16:15;;;;;;;0.20;0.20;;;11.60;99.90;;;;;;5045667;28;20033;-72
2023/05/04 07:18:40;;;;;;;0.15;0.15;;;11.80;99.90;;;;;;5042836;28;20064;-72
2023/05/04 07:21:10;;;;;;;0.20;0.20;;;11.90;99.90;;;;;;5054406;28;20091;-72
2023/05/04 07:23:36;;;;;;;0.20;0.20;;;12.00;99.90;;;;;;5055003;28;20067;-72
2023/05/04 07:26:03;;;;;;;0.20;0.20;;;12.00;99.90;;;;;;5054781;28;20052;-72
2023/05/04 07:28:28;;;;;;;0.20;0.20;;;12.30;99.90;;;;;;5055055;28;20079;-72
2023/05/04 07:30:54;;;;;;;0.20;0.20;;;12.40;99.90;;;;;;5054656;28;20041;-72
2023/05/04 07:33:20;;;;;;;0.20;0.20;;;12.50;99.90;;;;;;5054014;28;20025;-72
2023/05/04 07:35:45;;;;;;;0.20;0.20;;;12.50;99.90;;;;;;5054778;28;20108;-72
2023/05/04 07:38:10;;;;;;;0.20;0.20;;;12.50;99.90;;;;;;5054499;28;20028;-71
2023/05/04 07:40:36;;;;;;;0.22;0.22;;;12.40;99.90;;;;;;5049122;28;20033;-71
2023/05/04 07:43:01;;;;;;;0.20;0.20;;;12.40;99.90;;;;;;5049602;28;20025;-72
2023/05/04 07:45:27;;;;;;;0.20;0.20;;;12.30;99.90;;;;;;5043431;28;20025;-72
2023/05/04 07:47:53;;;;;;;0.20;0.20;;;12.30;99.90;;;;;;5054169;28;20028;-71
2023/05/04 07:50:18;;;;;;;0.17;0.17;;;12.30;99.90;;;;;;5050537;28;20483;-72
2023/05/04 07:52:45;;;;;;;0.10;0.10;;;12.20;99.90;;;;;;5054150;28;20044;-72
2023/05/04 07:55:11;;;;;;;0.20;0.20;;;12.30;99.90;;;;;;5053330;28;20013;-70
2023/05/04 07:57:36;;;;;;;0.20;0.20;;;12.50;99.90;;;;;;5038335;28;20075;-71
2023/05/04 08:00:04;;;;;;;0.20;0.20;;;12.70;99.90;;;;;;5044252;28;20036;-71
2023/05/04 08:02:30;;;;;;;0.20;0.20;;;13.00;99.90;;;;;;5049392;23;20069;-68
2023/05/04 08:04:55;;;;;;;0.10;0.10;;;13.30;99.90;;;;;;5010747;28;20061;-68
2023/05/04 08:07:21;;;;;;;0.20;0.20;;;13.50;99.90;;;;;;5013968;28;20057;-68
2023/05/04 08:09:47;;;;;;;0.20;0.20;;;13.70;99.90;;;;;;4995032;28;20058;-69
2023/05/04 08:12:13;;;;;;;0.20;0.20;;;13.70;99.90;;;;;;4995217;28;20061;-68
2023/05/04 08:14:39;;;;;;;0.10;0.10;;;13.80;99.90;;;;;;4994709;28;20076;-69
2023/05/04 08:17:05;;;;;;;0.20;0.20;;;13.80;99.90;;;;;;4995206;28;20062;-68
2023/05/04 08:19:30;;;;;;;0.20;0.20;;;13.80;99.90;;;;;;4994977;28;20054;-68
2023/05/04 08:21:56;;;;;;;0.20;0.20;;;13.90;99.90;;;;;;4995048;28;20069;-68
2023/05/04 08:24:21;;;;;;;0.13;0.13;;;14.10;99.90;;;;;;4994243;28;20034;-69
2023/05/04 08:26:47;;;;;;;0.20;0.20;;;14.40;99.90;;;;;;4995062;28;20077;-68
2023/05/04 08:29:12;;;;;;;0.20;0.20;;;14.70;99.90;;;;;;4994693;28;20036;-69
2023/05/04 08:31:39;;;;;;;0.20;0.20;;;14.70;99.90;;;;;;4994858;28;20027;-69
2023/05/04 08:34:05;;;;;;;0.10;0.10;;;14.80;99.90;;;;;;4994778;28;20369;-69
2023/05/04 08:36:31;;;;;;;0.20;0.20;;;14.80;99.90;;;;;;4994335;28;20073;-69
2023/05/04 08:38:56;;;;;;;0.10;0.10;;;15.10;99.90;;;;;;4994780;28;20101;-69
2023/05/04 08:41:25;;;;;;;0.17;0.17;;;15.40;99.90;;;;;;4996534;28;20026;-69
2023/05/04 08:43:51;;;;;;;0.20;0.20;;;15.60;99.90;;;;;;4994008;28;20025;-68
2023/05/04 08:46:16;;;;;;;0.10;0.10;;;15.70;99.90;;;;;;4994425;28;20030;-69
2023/05/04 08:48:45;;;;;;;0.20;0.20;;;15.80;99.90;;;;;;4994381;28;20031;-69
2023/05/04 08:51:11;;;;;;;0.20;0.20;;;15.80;99.90;;;;;;4994227;28;20034;-69
2023/05/04 08:53:40;;;;;;;0.20;0.20;;;15.80;99.90;;;;;;4994516;28;20433;-69
2023/05/04 08:56:12;;;;;;;0.20;0.20;;;15.70;99.90;;;;;;4994169;28;20396;-69
2023/05/04 08:58:47;;;;;;;0.20;0.20;;;15.40;99.90;;;;;;4994025;28;20045;-68
2023/05/04 09:01:15;;;;;;;0.20;0.20;;;15.40;99.90;;;;;;4995789;28;20026;-68
2023/05/04 09:03:41;;;;;;;0.20;0.20;;;15.40;99.90;;;;;;5013513;28;20140;-68
2023/05/04 09:06:08;;;;;;;0.20;0.20;;;15.50;99.90;;;;;;5012342;28;20054;-68
2023/05/04 09:08:33;;;;;;;0.20;0.20;;;15.60;99.90;;;;;;5013350;28;20034;-68
2023/05/04 09:10:59;;;;;;;0.20;0.20;;;15.70;99.90;;;;;;5013356;28;20041;-68
2023/05/04 09:13:25;;;;;;;0.10;0.10;;;15.80;99.90;;;;;;5013680;28;20030;-68
2023/05/04 09:15:59;;;;;;;0.10;0.10;;;15.80;99.90;;;;;;5013529;28;20022;-68
2023/05/04 09:18:38;;;;;;;0.20;0.20;;;15.70;99.90;;;;;;5013423;28;20036;-68
2023/05/04 09:21:04;;;;;;;0.10;0.10;;;15.90;99.90;;;;;;5013672;28;20510;-69
2023/05/04 09:23:29;;;;;;;0.20;0.20;;;16.00;99.90;;;;;;5013341;28;20038;-68
2023/05/04 09:25:55;;;;;;;0.10;0.10;;;16.30;99.90;;;;;;5013903;28;20052;-69
2023/05/04 09:28:34;;;;;;;0.10;0.10;;;16.40;99.90;;;;;;5012898;28;20034;-68
2023/05/04 09:31:01;;;;;;;0.10;0.10;;;16.40;99.90;;;;;;5013170;28;20088;-69
2023/05/04 09:33:27;;;;;;;0.10;0.10;;;16.40;99.90;;;;;;5013263;28;20483;-69
2023/05/04 09:35:53;;;;;;;0.20;0.20;;;16.40;99.90;;;;;;5013587;28;20368;-69
2023/05/04 09:38:31;;;;;;;0.10;0.10;;;16.30;99.90;;;;;;5013180;28;20026;-68
2023/05/04 09:40:56;;;;;;;0.20;0.20;;;16.20;99.90;;;;;;5012084;28;20034;-68
2023/05/04 09:43:23;;;;;;;0.20;0.20;;;16.50;99.90;;;;;;5013172;28;20048;-68
2023/05/04 09:45:49;;;;;;;0.20;0.20;;;16.50;99.90;;;;;;5013462;28;20096;-69
2023/05/04 09:48:15;;;;;;;0.20;0.20;;;16.70;99.90;;;;;;5013211;28;20026;-68
2023/05/04 09:50:53;;;;;;;0.20;0.20;;;16.70;99.90;;;;;;5013191;28;20113;-69
2023/05/04 09:53:24;;;;;;;0.15;0.15;;;16.80;99.90;;;;;;5013426;28;20088;-68
2023/05/04 09:56:02;;;;;;;0.20;0.20;;;16.90;99.90;;;;;;5013197;28;20026;-69
2023/05/04 09:58:29;;;;;;;0.17;0.17;;;17.00;99.90;;;;;;5013452;28;20100;-69
2023/05/04 10:00:56;;;;;;;0.10;0.10;;;17.00;99.90;;;;;;5013060;28;20420;-69
2023/05/04 10:03:22;;;;;;;0.17;0.17;;;17.20;99.90;;;;;;5012907;28;20104;-69
2023/05/04 10:05:48;;;;;;;0.10;0.10;;;17.10;99.90;;;;;;5013088;28;20484;-69
2023/05/04 10:08:16;;;;;;;0.20;0.20;;;17.00;99.90;;;;;;5012487;28;20022;-68
2023/05/04 10:10:42;;;;;;;0.13;0.13;;;16.70;99.90;;;;;;5013204;28;20034;-69
2023/05/04 10:13:08;;;;;;;0.20;0.20;;;16.90;99.90;;;;;;5013587;28;20420;-69
2023/05/04 10:15:36;;;;;;;0.10;0.10;;;17.00;99.90;;;;;;5013284;28;20101;-69
2023/05/04 10:18:20;;;;;;;0.10;0.10;;;17.10;99.90;;;;;;5016280;28;20033;-68
2023/05/04 10:21:00;;;;;;;0.10;0.10;;;17.00;99.90;;;;;;5017049;28;20030;-69
2023/05/04 10:23:49;;;;;;;0.13;0.13;;;16.90;99.90;;;;;;5016867;28;20387;-69
2023/05/04 10:26:40;;;;;;;0.10;0.10;;;16.90;99.90;;;;;;5016713;28;20026;-69
2023/05/04 10:29:19;;;;;;;0.10;0.10;;;17.00;99.90;;;;;;5016874;28;20030;-69
2023/05/04 10:31:45;;;;;;;0.10;0.10;;;17.10;99.90;;;;;;5016338;28;20034;-69
2023/05/04 10:34:11;;;;;;;0.13;0.13;;;17.10;99.90;;;;;;5016648;28;20092;-69
2023/05/04 10:36:38;;;;;;;0.10;0.10;;;17.40;99.90;;;;;;5016431;28;20049;-69
2023/05/04 10:39:04;;;;;;;0.20;0.20;;;17.90;99.90;;;;;;5016328;28;20045;-69
2023/05/04 10:41:31;;;;;;;0.10;0.10;;;18.20;99.90;;;;;;5016623;28;20037;-69
2023/05/04 10:44:04;;;;;;;0.20;0.20;;;18.50;99.90;;;;;;5015915;28;20021;-69
2023/05/04 10:46:30;;;;;;;0.17;0.17;;;18.80;99.90;;;;;;5016299;28;20026;-69
2023/05/04 10:48:55;;;;;;;0.10;0.10;;;19.10;99.90;;;;;;5016136;28;20045;-69
2023/05/04 10:51:25;;;;;;;0.20;0.20;;;19.50;99.90;;;;;;5016164;28;20038;-69
2023/05/04 10:53:51;;;;;;;0.10;0.10;;;19.60;99.90;;;;;;5016249;28;20033;-69
2023/05/04 10:56:21;;;;;;;0.10;0.10;;;19.30;99.90;;;;;;5015835;28;20025;-69
2023/05/04 10:58:47;;;;;;;0.10;0.10;;;18.60;99.90;;;;;;5016161;28;20503;-69
2023/05/04 11:01:13;;;;;;;0.10;0.10;;;18.20;99.90;;;;;;5016245;28;20034;-69
2023/05/04 11:03:42;;;;;;;0.10;0.10;;;18.20;99.90;;;;;;5015759;28;20123;-69
2023/05/04 11:06:18;;;;;;;0.10;0.10;;;18.40;99.90;;;;;;5016710;28;20099;-69
2023/05/04 11:08:57;;;;;;;0.13;0.13;;;18.20;99.90;;;;;;5015242;28;20026;-69
2023/05/04 11:11:23;;;;;;;0.10;0.10;;;18.30;99.90;;;;;;5016030;28;20127;-69
2023/05/04 11:13:49;;;;;;;0.10;0.10;;;18.50;99.90;;;;;;5015888;28;20022;-69
2023/05/04 11:16:23;;;;;;;0.10;0.10;;;18.60;99.90;;;;;;5016270;28;20026;-69
2023/05/04 11:18:48;;;;;;;0.10;0.10;;;18.90;99.90;;;;;;5015231;28;20488;-69
2023/05/04 11:21:26;;;;;;;0.10;0.10;;;19.30;99.90;;;;;;5015634;28;20114;-69
2023/05/04 11:23:58;;;;;;;0.10;0.10;;;19.70;99.90;;;;;;5015709;28;20030;-69
2023/05/04 11:26:25;;;;;;;0.10;0.10;;;19.80;99.90;;;;;;5015662;28;20026;-69
2023/05/04 11:28:51;;;;;;;0.10;0.10;;;20.00;99.90;;;;;;5014613;28;20113;-69
2023/05/04 11:31:18;;;;;;;0.10;0.10;;;20.00;99.90;;;;;;5015655;28;20114;-69
2023/05/04 11:33:53;;;;;;;0.10;0.10;;;20.00;99.90;;;;;;4998624;28;20026;-69
2023/05/04 11:36:21;;;;;;;0.10;0.10;;;20.10;99.90;;;;;;5015464;28;20101;-69
2023/05/04 11:38:46;;;;;;;0.10;0.10;;;20.00;99.90;;;;;;5015563;28;20440;-70
2023/05/04 11:41:12;;;;;;;0.10;0.10;;;19.90;99.90;;;;;;5014733;28;20026;-69
2023/05/04 11:43:40;;;;;;;0.10;0.10;;;19.60;99.90;;;;;;5015152;28;20105;-69
2023/05/04 11:46:06;;;;;;;0.10;0.10;;;19.50;99.90;;;;;;5015361;28;20442;-69
2023/05/04 11:48:33;;;;;;;0.10;0.10;;;19.40;99.90;;;;;;5015121;28;20037;-69
2023/05/04 11:50:59;;;;;;;0.10;0.10;;;19.10;99.90;;;;;;5014952;28;20030;-69
2023/05/04 11:53:25;;;;;;;0.10;0.10;;;19.00;99.90;;;;;;5014947;28;20089;-69
2023/05/04 11:55:53;;;;;;;0.10;0.10;;;18.70;99.90;;;;;;5014686;28;20101;-69
2023/05/04 11:58:24;;;;;;;0.10;0.10;;;18.70;99.90;;;;;;5015199;28;20022;-69
2023/05/04 12:00:55;;;;;;;0.10;0.10;;;18.30;99.90;;;;;;5015010;28;20390;-69
2023/05/04 12:03:31;;;;;;;0.10;0.10;;;18.00;99.90;;;;;;5014626;28;20149;-69
2023/05/04 12:05:57;;;;;;;0.10;0.10;;;17.80;99.90;;;;;;5015044;28;20129;-69
2023/05/04 12:08:30;;;;;;;0.10;0.10;;;17.80;99.90;;;;;;5014478;28;20543;-69
2023/05/04 12:11:12;;;;;;;0.10;0.10;;;17.90;99.90;;;;;;5014627;28;20037;-69
2023/05/04 12:13:39;;;;;;;0.10;0.10;;;18.00;99.90;;;;;;5014591;28;20052;-69
2023/05/04 12:16:09;;;;;;;0.10;0.10;;;17.90;99.90;;;;;;5013999;28;20395;-69
2023/05/04 12:18:34;;;;;;;0.10;0.10;;;17.90;99.90;;;;;;5015022;28;20357;-69
2023/05/04 12:21:17;;;;;;;0.10;0.10;;;17.70;99.90;;;;;;5014458;28;20034;-69
2023/05/04 12:23:44;;;;;;;0.15;0.15;;;17.90;99.90;;;;;;5014683;28;20033;-69
2023/05/04 12:26:10;;;;;;;0.10;0.10;;;18.00;99.90;;;;;;5013865;28;20026;-69
2023/05/04 12:28:37;;;;;;;0.10;0.10;;;18.00;99.90;;;;;;5007552;28;20041;-69
2023/05/04 12:31:03;;;;;;;0.10;0.10;;;18.00;99.90;;;;;;5013881;28;20037;-69
2023/05/04 12:33:30;;;;;;;0.10;0.10;;;18.30;99.90;;;;;;5014210;28;20036;-69
2023/05/04 12:35:56;;;;;;;0.10;0.10;;;18.70;99.90;;;;;;5014044;28;20097;-69
2023/05/04 12:38:21;;;;;;;0.10;0.10;;;18.80;99.90;;;;;;5013825;28;20613;-69
2023/05/04 12:40:47;;;;;;;0.10;0.10;;;18.50;99.90;;;;;;5012897;28;20030;-69
2023/05/04 12:43:13;;;;;;;0.10;0.10;;;18.60;99.90;;;;;;5013417;28;20395;-69
2023/05/04 12:45:38;;;;;;;0.10;0.10;;;18.80;99.90;;;;;;5014307;28;20030;-69
2023/05/04 12:48:04;;;;;;;0.10;0.10;;;18.90;99.90;;;;;;5014062;28;20034;-69
2023/05/04 12:50:29;;;;;;;0.10;0.10;;;18.90;99.90;;;;;;5013879;28;20029;-69
2023/05/04 12:52:55;;;;;;;0.10;0.10;;;18.80;99.90;;;;;;5013838;28;20041;-69